sensor_id;sensor_type;location;lat;lon;timestamp;P1;durP1;ratioP1;P2;durP2;ratioP2
85506;SDS011;75915;41.988;21.460;2024-01-25T00:00:58;99.97;;;43.22;;
85506;SDS011;75915;41.988;21.460;2024-01-25T00:03:24;97.90;;;43.92;;
85506;SDS011;75915;41.988;21.460;2024-01-25T00:05:50;121.07;;;58.88;;
85506;SDS011;75915;41.988;21.460;2024-01-25T00:08:15;112.85;;;51.97;;
85506;SDS011;75915;41.988;21.460;2024-01-25T00:10:41;112.53;;;48.10;;
85506;SDS011;75915;41.988;21.460;2024-01-25T00:13:07;114.03;;;49.25;;
85506;SDS011;75915;41.988;21.460;2024-01-25T00:15:32;130.85;;;58.50;;
85506;SDS011;75915;41.988;21.460;2024-01-25T00:17:58;120.80;;;56.80;;
85506;SDS011;75915;41.988;21.460;2024-01-25T00:20:24;114.90;;;52.88;;
85506;SDS011;75915;41.988;21.460;2024-01-25T00:22:49;100.28;;;48.08;;
85506;SDS011;75915;41.988;21.460;2024-01-25T00:25:15;110.65;;;51.28;;
85506;SDS011;75915;41.988;21.460;2024-01-25T00:27:41;105.75;;;49.97;;
85506;SDS011;75915;41.988;21.460;2024-01-25T00:30:06;104.63;;;50.28;;
85506;SDS011;75915;41.988;21.460;2024-01-25T00:32:32;96.97;;;44.65;;
85506;SDS011;75915;41.988;21.460;2024-01-25T00:34:58;107.75;;;45.25;;
85506;SDS011;75915;41.988;21.460;2024-01-25T00:37:23;102.28;;;43.10;;
85506;SDS011;75915;41.988;21.460;2024-01-25T00:39:49;94.28;;;44.30;;
85506;SDS011;75915;41.988;21.460;2024-01-25T00:42:15;92.97;;;39.75;;
85506;SDS011;75915;41.988;21.460;2024-01-25T00:44:45;77.45;;;34.65;;
85506;SDS011;75915;41.988;21.460;2024-01-25T00:47:11;74.32;;;30.10;;
85506;SDS011;75915;41.988;21.460;2024-01-25T00:49:37;78.72;;;34.15;;
85506;SDS011;75915;41.988;21.460;2024-01-25T00:52:03;77.70;;;31.85;;
85506;SDS011;75915;41.988;21.460;2024-01-25T00:54:29;66.88;;;32.30;;
85506;SDS011;75915;41.988;21.460;2024-01-25T00:56:56;81.43;;;32.05;;
85506;SDS011;75915;41.988;21.460;2024-01-25T00:59:22;81.30;;;34.15;;
85506;SDS011;75915;41.988;21.460;2024-01-25T01:01:48;68.05;;;30.90;;
85506;SDS011;75915;41.988;21.460;2024-01-25T01:04:15;75.47;;;31.67;;
85506;SDS011;75915;41.988;21.460;2024-01-25T01:06:41;65.60;;;29.25;;
85506;SDS011;75915;41.988;21.460;2024-01-25T01:09:07;67.93;;;29.83;;
85506;SDS011;75915;41.988;21.460;2024-01-25T01:14:00;70.55;;;27.88;;
85506;SDS011;75915;41.988;21.460;2024-01-25T01:16:29;61.38;;;28.17;;
85506;SDS011;75915;41.988;21.460;2024-01-25T01:18:57;64.82;;;27.20;;
85506;SDS011;75915;41.988;21.460;2024-01-25T01:21:30;57.50;;;27.30;;
85506;SDS011;75915;41.988;21.460;2024-01-25T01:23:57;54.72;;;24.33;;
85506;SDS011;75915;41.988;21.460;2024-01-25T01:26:22;67.30;;;27.73;;
85506;SDS011;75915;41.988;21.460;2024-01-25T01:28:48;64.85;;;28.75;;
85506;SDS011;75915;41.988;21.460;2024-01-25T01:31:15;71.85;;;30.48;;
85506;SDS011;75915;41.988;21.460;2024-01-25T01:33:40;62.78;;;27.25;;
85506;SDS011;75915;41.988;21.460;2024-01-25T01:36:06;67.63;;;28.10;;
85506;SDS011;75915;41.988;21.460;2024-01-25T01:38:33;61.65;;;28.65;;
85506;SDS011;75915;41.988;21.460;2024-01-25T01:40:58;61.58;;;27.10;;
85506;SDS011;75915;41.988;21.460;2024-01-25T01:43:24;60.05;;;27.13;;
85506;SDS011;75915;41.988;21.460;2024-01-25T01:45:51;57.15;;;29.08;;
85506;SDS011;75915;41.988;21.460;2024-01-25T01:48:18;67.43;;;29.05;;
85506;SDS011;75915;41.988;21.460;2024-01-25T01:50:45;56.85;;;25.77;;
85506;SDS011;75915;41.988;21.460;2024-01-25T01:53:12;65.57;;;26.58;;
85506;SDS011;75915;41.988;21.460;2024-01-25T01:55:38;64.05;;;28.77;;
85506;SDS011;75915;41.988;21.460;2024-01-25T01:58:05;62.97;;;28.70;;
85506;SDS011;75915;41.988;21.460;2024-01-25T02:00:30;61.50;;;29.02;;
85506;SDS011;75915;41.988;21.460;2024-01-25T02:02:59;65.63;;;28.70;;
85506;SDS011;75915;41.988;21.460;2024-01-25T02:05:25;66.32;;;29.88;;
85506;SDS011;75915;41.988;21.460;2024-01-25T02:07:51;67.63;;;28.45;;
85506;SDS011;75915;41.988;21.460;2024-01-25T02:10:19;68.78;;;29.75;;
85506;SDS011;75915;41.988;21.460;2024-01-25T02:12:45;60.03;;;28.42;;
85506;SDS011;75915;41.988;21.460;2024-01-25T02:15:11;70.80;;;30.05;;
85506;SDS011;75915;41.988;21.460;2024-01-25T02:17:38;66.28;;;29.30;;
85506;SDS011;75915;41.988;21.460;2024-01-25T02:20:04;70.13;;;30.42;;
85506;SDS011;75915;41.988;21.460;2024-01-25T02:22:31;64.82;;;30.38;;
85506;SDS011;75915;41.988;21.460;2024-01-25T02:24:57;62.90;;;27.08;;
85506;SDS011;75915;41.988;21.460;2024-01-25T02:27:24;73.80;;;29.25;;
85506;SDS011;75915;41.988;21.460;2024-01-25T02:32:18;56.08;;;24.20;;
85506;SDS011;75915;41.988;21.460;2024-01-25T02:34:44;49.88;;;24.17;;
85506;SDS011;75915;41.988;21.460;2024-01-25T02:37:13;60.33;;;22.70;;
85506;SDS011;75915;41.988;21.460;2024-01-25T02:39:39;50.95;;;23.13;;
85506;SDS011;75915;41.988;21.460;2024-01-25T02:42:05;51.03;;;23.80;;
85506;SDS011;75915;41.988;21.460;2024-01-25T02:44:30;54.33;;;23.00;;
85506;SDS011;75915;41.988;21.460;2024-01-25T02:46:57;54.70;;;23.25;;
85506;SDS011;75915;41.988;21.460;2024-01-25T02:49:23;51.10;;;23.00;;
85506;SDS011;75915;41.988;21.460;2024-01-25T02:51:49;52.40;;;22.75;;
85506;SDS011;75915;41.988;21.460;2024-01-25T02:54:15;45.53;;;22.55;;
85506;SDS011;75915;41.988;21.460;2024-01-25T02:56:40;40.78;;;19.08;;
85506;SDS011;75915;41.988;21.460;2024-01-25T02:59:07;34.83;;;18.10;;
85506;SDS011;75915;41.988;21.460;2024-01-25T03:01:41;38.85;;;17.08;;
85506;SDS011;75915;41.988;21.460;2024-01-25T03:04:08;25.98;;;15.07;;
85506;SDS011;75915;41.988;21.460;2024-01-25T03:06:33;35.25;;;16.13;;
85506;SDS011;75915;41.988;21.460;2024-01-25T03:08:59;36.55;;;15.02;;
85506;SDS011;75915;41.988;21.460;2024-01-25T03:11:25;31.10;;;14.25;;
85506;SDS011;75915;41.988;21.460;2024-01-25T03:13:51;39.08;;;15.23;;
85506;SDS011;75915;41.988;21.460;2024-01-25T03:16:16;30.90;;;14.68;;
85506;SDS011;75915;41.988;21.460;2024-01-25T03:18:42;38.25;;;15.38;;
85506;SDS011;75915;41.988;21.460;2024-01-25T03:21:07;32.17;;;15.00;;
85506;SDS011;75915;41.988;21.460;2024-01-25T03:23:35;31.90;;;13.80;;
85506;SDS011;75915;41.988;21.460;2024-01-25T03:26:01;22.33;;;12.38;;
85506;SDS011;75915;41.988;21.460;2024-01-25T03:28:27;28.42;;;13.82;;
85506;SDS011;75915;41.988;21.460;2024-01-25T03:30:53;28.83;;;11.85;;
85506;SDS011;75915;41.988;21.460;2024-01-25T03:33:18;23.67;;;12.20;;
85506;SDS011;75915;41.988;21.460;2024-01-25T03:35:44;30.40;;;13.15;;
85506;SDS011;75915;41.988;21.460;2024-01-25T03:38:09;28.20;;;13.52;;
85506;SDS011;75915;41.988;21.460;2024-01-25T03:40:35;25.52;;;13.60;;
85506;SDS011;75915;41.988;21.460;2024-01-25T03:43:00;25.83;;;12.70;;
85506;SDS011;75915;41.988;21.460;2024-01-25T03:45:26;24.25;;;12.05;;
85506;SDS011;75915;41.988;21.460;2024-01-25T03:47:51;27.85;;;13.63;;
85506;SDS011;75915;41.988;21.460;2024-01-25T03:50:17;29.58;;;14.15;;
85506;SDS011;75915;41.988;21.460;2024-01-25T03:52:42;29.23;;;12.73;;
85506;SDS011;75915;41.988;21.460;2024-01-25T03:55:08;27.13;;;12.30;;
85506;SDS011;75915;41.988;21.460;2024-01-25T03:57:33;23.00;;;11.73;;
85506;SDS011;75915;41.988;21.460;2024-01-25T04:00:01;28.70;;;13.20;;
85506;SDS011;75915;41.988;21.460;2024-01-25T04:02:28;37.92;;;17.48;;
85506;SDS011;75915;41.988;21.460;2024-01-25T04:04:53;68.20;;;24.95;;
85506;SDS011;75915;41.988;21.460;2024-01-25T04:07:19;60.92;;;25.85;;
85506;SDS011;75915;41.988;21.460;2024-01-25T04:09:44;52.22;;;25.55;;
85506;SDS011;75915;41.988;21.460;2024-01-25T04:12:10;59.63;;;25.58;;
85506;SDS011;75915;41.988;21.460;2024-01-25T04:14:37;70.32;;;27.83;;
85506;SDS011;75915;41.988;21.460;2024-01-25T04:17:03;50.17;;;23.33;;
85506;SDS011;75915;41.988;21.460;2024-01-25T04:19:29;66.53;;;26.10;;
85506;SDS011;75915;41.988;21.460;2024-01-25T04:21:55;45.95;;;23.83;;
85506;SDS011;75915;41.988;21.460;2024-01-25T04:24:20;51.58;;;24.02;;
85506;SDS011;75915;41.988;21.460;2024-01-25T04:26:47;50.67;;;22.13;;
85506;SDS011;75915;41.988;21.460;2024-01-25T04:29:12;53.92;;;24.45;;
85506;SDS011;75915;41.988;21.460;2024-01-25T04:31:44;54.67;;;25.02;;
85506;SDS011;75915;41.988;21.460;2024-01-25T04:34:10;59.85;;;23.85;;
85506;SDS011;75915;41.988;21.460;2024-01-25T04:36:37;51.22;;;25.45;;
85506;SDS011;75915;41.988;21.460;2024-01-25T04:39:03;56.95;;;24.88;;
85506;SDS011;75915;41.988;21.460;2024-01-25T04:41:32;58.85;;;26.23;;
85506;SDS011;75915;41.988;21.460;2024-01-25T04:43:58;50.83;;;24.90;;
85506;SDS011;75915;41.988;21.460;2024-01-25T04:46:26;55.35;;;24.85;;
85506;SDS011;75915;41.988;21.460;2024-01-25T04:48:52;54.00;;;24.63;;
85506;SDS011;75915;41.988;21.460;2024-01-25T04:51:18;50.92;;;24.50;;
85506;SDS011;75915;41.988;21.460;2024-01-25T04:53:45;61.38;;;23.58;;
85506;SDS011;75915;41.988;21.460;2024-01-25T04:56:14;57.03;;;23.67;;
85506;SDS011;75915;41.988;21.460;2024-01-25T04:58:39;53.38;;;22.88;;
85506;SDS011;75915;41.988;21.460;2024-01-25T05:01:07;53.65;;;22.88;;
85506;SDS011;75915;41.988;21.460;2024-01-25T05:03:34;48.33;;;22.95;;
85506;SDS011;75915;41.988;21.460;2024-01-25T05:06:00;57.58;;;24.13;;
85506;SDS011;75915;41.988;21.460;2024-01-25T05:08:26;53.20;;;22.52;;
85506;SDS011;75915;41.988;21.460;2024-01-25T05:10:52;47.28;;;23.50;;
85506;SDS011;75915;41.988;21.460;2024-01-25T05:13:17;52.85;;;24.77;;
85506;SDS011;75915;41.988;21.460;2024-01-25T05:15:44;52.20;;;23.75;;
85506;SDS011;75915;41.988;21.460;2024-01-25T05:18:11;49.80;;;23.83;;
85506;SDS011;75915;41.988;21.460;2024-01-25T05:20:36;53.70;;;24.48;;
85506;SDS011;75915;41.988;21.460;2024-01-25T05:23:03;58.80;;;25.42;;
85506;SDS011;75915;41.988;21.460;2024-01-25T05:25:29;59.78;;;25.02;;
85506;SDS011;75915;41.988;21.460;2024-01-25T05:27:55;58.92;;;24.58;;
85506;SDS011;75915;41.988;21.460;2024-01-25T05:30:21;56.33;;;25.02;;
85506;SDS011;75915;41.988;21.460;2024-01-25T05:32:47;68.03;;;26.05;;
85506;SDS011;75915;41.988;21.460;2024-01-25T05:35:16;57.03;;;24.02;;
85506;SDS011;75915;41.988;21.460;2024-01-25T05:37:42;52.58;;;22.55;;
85506;SDS011;75915;41.988;21.460;2024-01-25T05:40:11;53.03;;;24.08;;
85506;SDS011;75915;41.988;21.460;2024-01-25T05:42:37;60.92;;;24.05;;
85506;SDS011;75915;41.988;21.460;2024-01-25T05:45:05;52.35;;;23.98;;
85506;SDS011;75915;41.988;21.460;2024-01-25T05:47:31;55.92;;;23.55;;
85506;SDS011;75915;41.988;21.460;2024-01-25T05:49:57;48.97;;;22.55;;
85506;SDS011;75915;41.988;21.460;2024-01-25T05:52:23;52.53;;;23.95;;
85506;SDS011;75915;41.988;21.460;2024-01-25T05:54:49;58.33;;;24.77;;
85506;SDS011;75915;41.988;21.460;2024-01-25T05:57:15;54.15;;;24.65;;
85506;SDS011;75915;41.988;21.460;2024-01-25T05:59:43;50.97;;;21.77;;
85506;SDS011;75915;41.988;21.460;2024-01-25T06:02:09;57.97;;;25.00;;
85506;SDS011;75915;41.988;21.460;2024-01-25T06:04:34;63.05;;;27.23;;
85506;SDS011;75915;41.988;21.460;2024-01-25T06:07:00;58.75;;;26.88;;
85506;SDS011;75915;41.988;21.460;2024-01-25T06:09:25;62.90;;;27.33;;
85506;SDS011;75915;41.988;21.460;2024-01-25T06:11:51;51.75;;;25.13;;
85506;SDS011;75915;41.988;21.460;2024-01-25T06:14:19;48.58;;;22.77;;
85506;SDS011;75915;41.988;21.460;2024-01-25T06:16:45;49.38;;;22.30;;
85506;SDS011;75915;41.988;21.460;2024-01-25T06:19:11;56.85;;;21.75;;
85506;SDS011;75915;41.988;21.460;2024-01-25T06:21:37;44.75;;;21.13;;
85506;SDS011;75915;41.988;21.460;2024-01-25T06:24:03;53.83;;;20.13;;
85506;SDS011;75915;41.988;21.460;2024-01-25T06:26:32;54.85;;;21.70;;
85506;SDS011;75915;41.988;21.460;2024-01-25T06:28:58;53.00;;;22.38;;
85506;SDS011;75915;41.988;21.460;2024-01-25T06:31:24;55.30;;;22.52;;
85506;SDS011;75915;41.988;21.460;2024-01-25T06:33:50;52.17;;;23.35;;
85506;SDS011;75915;41.988;21.460;2024-01-25T06:36:18;61.17;;;25.02;;
85506;SDS011;75915;41.988;21.460;2024-01-25T06:38:44;53.88;;;25.60;;
85506;SDS011;75915;41.988;21.460;2024-01-25T06:41:10;48.17;;;22.90;;
85506;SDS011;75915;41.988;21.460;2024-01-25T06:43:37;50.50;;;22.75;;
85506;SDS011;75915;41.988;21.460;2024-01-25T06:46:02;59.60;;;24.05;;
85506;SDS011;75915;41.988;21.460;2024-01-25T06:48:28;57.95;;;20.33;;
85506;SDS011;75915;41.988;21.460;2024-01-25T06:50:53;49.55;;;22.35;;
85506;SDS011;75915;41.988;21.460;2024-01-25T06:53:20;56.10;;;25.00;;
85506;SDS011;75915;41.988;21.460;2024-01-25T06:55:46;69.72;;;33.80;;
85506;SDS011;75915;41.988;21.460;2024-01-25T06:58:12;57.65;;;26.58;;
85506;SDS011;75915;41.988;21.460;2024-01-25T07:00:38;63.53;;;25.10;;
85506;SDS011;75915;41.988;21.460;2024-01-25T07:03:04;49.92;;;23.02;;
85506;SDS011;75915;41.988;21.460;2024-01-25T07:05:33;46.97;;;24.35;;
85506;SDS011;75915;41.988;21.460;2024-01-25T07:08:18;54.40;;;23.92;;
85506;SDS011;75915;41.988;21.460;2024-01-25T07:10:44;60.90;;;24.15;;
85506;SDS011;75915;41.988;21.460;2024-01-25T07:13:10;57.00;;;23.67;;
85506;SDS011;75915;41.988;21.460;2024-01-25T07:15:36;48.50;;;20.92;;
85506;SDS011;75915;41.988;21.460;2024-01-25T07:18:04;55.65;;;22.90;;
85506;SDS011;75915;41.988;21.460;2024-01-25T07:20:30;53.47;;;24.40;;
85506;SDS011;75915;41.988;21.460;2024-01-25T07:22:56;44.85;;;24.23;;
85506;SDS011;75915;41.988;21.460;2024-01-25T07:25:21;58.13;;;23.20;;
85506;SDS011;75915;41.988;21.460;2024-01-25T07:27:47;56.63;;;26.65;;
85506;SDS011;75915;41.988;21.460;2024-01-25T07:30:16;53.80;;;25.50;;
85506;SDS011;75915;41.988;21.460;2024-01-25T07:32:42;47.22;;;22.13;;
85506;SDS011;75915;41.988;21.460;2024-01-25T07:35:08;44.67;;;21.17;;
85506;SDS011;75915;41.988;21.460;2024-01-25T07:37:39;53.22;;;25.17;;
85506;SDS011;75915;41.988;21.460;2024-01-25T07:40:09;43.75;;;17.55;;
85506;SDS011;75915;41.988;21.460;2024-01-25T07:42:35;42.88;;;18.52;;
85506;SDS011;75915;41.988;21.460;2024-01-25T07:45:01;40.20;;;21.70;;
85506;SDS011;75915;41.988;21.460;2024-01-25T07:47:26;44.35;;;19.13;;
85506;SDS011;75915;41.988;21.460;2024-01-25T07:49:53;45.38;;;21.73;;
85506;SDS011;75915;41.988;21.460;2024-01-25T07:52:25;56.88;;;20.92;;
85506;SDS011;75915;41.988;21.460;2024-01-25T07:54:54;39.53;;;20.02;;
85506;SDS011;75915;41.988;21.460;2024-01-25T07:57:29;55.28;;;22.00;;
85506;SDS011;75915;41.988;21.460;2024-01-25T07:59:54;48.08;;;21.92;;
85506;SDS011;75915;41.988;21.460;2024-01-25T08:02:20;50.17;;;21.40;;
85506;SDS011;75915;41.988;21.460;2024-01-25T08:04:45;51.80;;;20.08;;
85506;SDS011;75915;41.988;21.460;2024-01-25T08:07:12;55.13;;;21.00;;
85506;SDS011;75915;41.988;21.460;2024-01-25T08:09:38;59.40;;;21.95;;
85506;SDS011;75915;41.988;21.460;2024-01-25T08:12:04;55.33;;;22.63;;
85506;SDS011;75915;41.988;21.460;2024-01-25T08:14:29;55.25;;;22.23;;
85506;SDS011;75915;41.988;21.460;2024-01-25T08:16:56;43.38;;;21.08;;
85506;SDS011;75915;41.988;21.460;2024-01-25T08:19:28;42.30;;;20.63;;
85506;SDS011;75915;41.988;21.460;2024-01-25T08:21:54;53.65;;;24.35;;
85506;SDS011;75915;41.988;21.460;2024-01-25T08:24:28;53.83;;;24.48;;
85506;SDS011;75915;41.988;21.460;2024-01-25T08:26:54;45.72;;;20.95;;
85506;SDS011;75915;41.988;21.460;2024-01-25T08:29:19;55.67;;;23.35;;
85506;SDS011;75915;41.988;21.460;2024-01-25T08:31:46;55.80;;;27.67;;
85506;SDS011;75915;41.988;21.460;2024-01-25T08:34:11;66.78;;;28.52;;
85506;SDS011;75915;41.988;21.460;2024-01-25T08:36:37;73.18;;;30.63;;
85506;SDS011;75915;41.988;21.460;2024-01-25T08:39:02;75.22;;;30.33;;
85506;SDS011;75915;41.988;21.460;2024-01-25T08:41:29;68.50;;;26.17;;
85506;SDS011;75915;41.988;21.460;2024-01-25T08:43:55;60.38;;;26.90;;
85506;SDS011;75915;41.988;21.460;2024-01-25T08:46:20;58.85;;;22.58;;
85506;SDS011;75915;41.988;21.460;2024-01-25T08:48:46;52.55;;;21.52;;
85506;SDS011;75915;41.988;21.460;2024-01-25T08:51:13;56.90;;;22.77;;
85506;SDS011;75915;41.988;21.460;2024-01-25T08:53:38;51.10;;;22.05;;
85506;SDS011;75915;41.988;21.460;2024-01-25T08:56:04;57.35;;;23.67;;
85506;SDS011;75915;41.988;21.460;2024-01-25T08:58:33;53.53;;;23.27;;
85506;SDS011;75915;41.988;21.460;2024-01-25T09:00:58;70.97;;;26.15;;
85506;SDS011;75915;41.988;21.460;2024-01-25T09:03:24;66.40;;;26.00;;
85506;SDS011;75915;41.988;21.460;2024-01-25T09:05:49;61.05;;;26.25;;
85506;SDS011;75915;41.988;21.460;2024-01-25T09:08:15;67.97;;;27.27;;
85506;SDS011;75915;41.988;21.460;2024-01-25T09:10:41;56.25;;;27.70;;
85506;SDS011;75915;41.988;21.460;2024-01-25T09:13:08;60.55;;;27.13;;
85506;SDS011;75915;41.988;21.460;2024-01-25T09:15:34;69.15;;;28.65;;
85506;SDS011;75915;41.988;21.460;2024-01-25T09:18:01;80.00;;;34.22;;
85506;SDS011;75915;41.988;21.460;2024-01-25T09:20:27;70.47;;;32.40;;
85506;SDS011;75915;41.988;21.460;2024-01-25T09:23:03;71.40;;;30.95;;
85506;SDS011;75915;41.988;21.460;2024-01-25T09:25:29;78.60;;;31.70;;
85506;SDS011;75915;41.988;21.460;2024-01-25T09:27:54;80.85;;;33.15;;
85506;SDS011;75915;41.988;21.460;2024-01-25T09:30:25;83.93;;;38.58;;
85506;SDS011;75915;41.988;21.460;2024-01-25T09:32:51;84.88;;;39.03;;
85506;SDS011;75915;41.988;21.460;2024-01-25T09:35:17;86.60;;;38.60;;
85506;SDS011;75915;41.988;21.460;2024-01-25T09:37:43;84.72;;;38.63;;
85506;SDS011;75915;41.988;21.460;2024-01-25T09:40:09;84.32;;;38.92;;
85506;SDS011;75915;41.988;21.460;2024-01-25T09:42:35;78.63;;;35.10;;
85506;SDS011;75915;41.988;21.460;2024-01-25T09:45:02;69.28;;;33.28;;
85506;SDS011;75915;41.988;21.460;2024-01-25T09:47:33;74.82;;;33.53;;
85506;SDS011;75915;41.988;21.460;2024-01-25T09:49:58;65.90;;;33.65;;
85506;SDS011;75915;41.988;21.460;2024-01-25T09:52:24;69.85;;;33.30;;
85506;SDS011;75915;41.988;21.460;2024-01-25T09:57:18;59.83;;;28.67;;
85506;SDS011;75915;41.988;21.460;2024-01-25T09:59:47;73.70;;;31.60;;
85506;SDS011;75915;41.988;21.460;2024-01-25T10:02:15;65.85;;;30.63;;
85506;SDS011;75915;41.988;21.460;2024-01-25T10:04:47;71.32;;;32.60;;
85506;SDS011;75915;41.988;21.460;2024-01-25T10:10:03;67.65;;;32.47;;
85506;SDS011;75915;41.988;21.460;2024-01-25T10:12:31;73.68;;;32.47;;
85506;SDS011;75915;41.988;21.460;2024-01-25T10:14:56;71.75;;;32.40;;
85506;SDS011;75915;41.988;21.460;2024-01-25T10:17:22;66.50;;;30.13;;
85506;SDS011;75915;41.988;21.460;2024-01-25T10:19:48;82.88;;;36.45;;
85506;SDS011;75915;41.988;21.460;2024-01-25T10:22:14;65.97;;;31.42;;
85506;SDS011;75915;41.988;21.460;2024-01-25T10:24:41;75.30;;;34.42;;
85506;SDS011;75915;41.988;21.460;2024-01-25T10:27:07;68.35;;;29.92;;
85506;SDS011;75915;41.988;21.460;2024-01-25T10:29:36;67.90;;;32.03;;
85506;SDS011;75915;41.988;21.460;2024-01-25T10:32:14;72.10;;;34.75;;
85506;SDS011;75915;41.988;21.460;2024-01-25T10:35:20;71.95;;;34.83;;
85506;SDS011;75915;41.988;21.460;2024-01-25T10:37:46;74.72;;;35.53;;
85506;SDS011;75915;41.988;21.460;2024-01-25T10:40:11;76.07;;;37.97;;
85506;SDS011;75915;41.988;21.460;2024-01-25T10:42:38;81.93;;;38.88;;
85506;SDS011;75915;41.988;21.460;2024-01-25T10:45:05;77.65;;;35.70;;
85506;SDS011;75915;41.988;21.460;2024-01-25T10:47:32;76.57;;;33.85;;
85506;SDS011;75915;41.988;21.460;2024-01-25T10:50:00;79.13;;;33.95;;
85506;SDS011;75915;41.988;21.460;2024-01-25T10:52:27;73.82;;;33.28;;
85506;SDS011;75915;41.988;21.460;2024-01-25T10:54:55;69.53;;;36.17;;
85506;SDS011;75915;41.988;21.460;2024-01-25T10:57:23;78.95;;;32.55;;
85506;SDS011;75915;41.988;21.460;2024-01-25T10:59:50;78.75;;;34.97;;
85506;SDS011;75915;41.988;21.460;2024-01-25T11:02:18;77.47;;;34.42;;
85506;SDS011;75915;41.988;21.460;2024-01-25T11:04:54;75.70;;;33.92;;
85506;SDS011;75915;41.988;21.460;2024-01-25T11:07:23;73.55;;;33.33;;
85506;SDS011;75915;41.988;21.460;2024-01-25T11:09:52;83.50;;;35.00;;
85506;SDS011;75915;41.988;21.460;2024-01-25T11:12:19;80.13;;;33.95;;
85506;SDS011;75915;41.988;21.460;2024-01-25T11:14:45;83.22;;;35.72;;
85506;SDS011;75915;41.988;21.460;2024-01-25T11:17:18;72.97;;;35.30;;
85506;SDS011;75915;41.988;21.460;2024-01-25T11:19:50;77.03;;;33.50;;
85506;SDS011;75915;41.988;21.460;2024-01-25T11:22:16;73.25;;;36.00;;
85506;SDS011;75915;41.988;21.460;2024-01-25T11:24:41;71.45;;;32.25;;
85506;SDS011;75915;41.988;21.460;2024-01-25T11:27:10;80.15;;;35.28;;
85506;SDS011;75915;41.988;21.460;2024-01-25T11:29:37;75.57;;;34.25;;
85506;SDS011;75915;41.988;21.460;2024-01-25T11:32:03;69.68;;;34.10;;
85506;SDS011;75915;41.988;21.460;2024-01-25T11:34:34;81.82;;;34.58;;
85506;SDS011;75915;41.988;21.460;2024-01-25T11:37:00;73.68;;;36.92;;
85506;SDS011;75915;41.988;21.460;2024-01-25T11:39:26;78.03;;;36.08;;
85506;SDS011;75915;41.988;21.460;2024-01-25T11:41:53;86.18;;;37.92;;
85506;SDS011;75915;41.988;21.460;2024-01-25T11:44:19;77.65;;;37.75;;
85506;SDS011;75915;41.988;21.460;2024-01-25T11:46:47;63.55;;;29.40;;
85506;SDS011;75915;41.988;21.460;2024-01-25T11:49:13;50.70;;;23.23;;
85506;SDS011;75915;41.988;21.460;2024-01-25T11:51:38;53.78;;;22.70;;
85506;SDS011;75915;41.988;21.460;2024-01-25T11:54:04;45.88;;;20.23;;
85506;SDS011;75915;41.988;21.460;2024-01-25T11:56:33;71.70;;;35.15;;
85506;SDS011;75915;41.988;21.460;2024-01-25T11:59:00;30.15;;;14.43;;
85506;SDS011;75915;41.988;21.460;2024-01-25T12:01:26;19.92;;;9.10;;
85506;SDS011;75915;41.988;21.460;2024-01-25T12:03:53;13.95;;;6.53;;
85506;SDS011;75915;41.988;21.460;2024-01-25T12:06:19;12.63;;;5.43;;
85506;SDS011;75915;41.988;21.460;2024-01-25T12:08:45;11.80;;;5.63;;
85506;SDS011;75915;41.988;21.460;2024-01-25T12:11:13;15.57;;;6.13;;
85506;SDS011;75915;41.988;21.460;2024-01-25T12:13:42;11.75;;;5.25;;
85506;SDS011;75915;41.988;21.460;2024-01-25T12:16:12;11.32;;;6.15;;
85506;SDS011;75915;41.988;21.460;2024-01-25T12:18:40;10.32;;;5.28;;
85506;SDS011;75915;41.988;21.460;2024-01-25T12:21:08;11.45;;;5.45;;
85506;SDS011;75915;41.988;21.460;2024-01-25T12:23:36;9.77;;;4.05;;
85506;SDS011;75915;41.988;21.460;2024-01-25T12:26:10;11.40;;;4.38;;
85506;SDS011;75915;41.988;21.460;2024-01-25T12:28:38;20.73;;;8.23;;
85506;SDS011;75915;41.988;21.460;2024-01-25T12:31:04;10.23;;;4.65;;
85506;SDS011;75915;41.988;21.460;2024-01-25T12:33:33;10.35;;;4.10;;
85506;SDS011;75915;41.988;21.460;2024-01-25T12:36:03;10.10;;;4.05;;
85506;SDS011;75915;41.988;21.460;2024-01-25T12:38:30;13.63;;;3.90;;
85506;SDS011;75915;41.988;21.460;2024-01-25T12:40:58;11.65;;;3.38;;
85506;SDS011;75915;41.988;21.460;2024-01-25T12:43:24;13.40;;;4.43;;
85506;SDS011;75915;41.988;21.460;2024-01-25T12:45:50;7.43;;;3.30;;
85506;SDS011;75915;41.988;21.460;2024-01-25T12:48:17;10.88;;;4.43;;
85506;SDS011;75915;41.988;21.460;2024-01-25T12:50:44;9.93;;;4.00;;
85506;SDS011;75915;41.988;21.460;2024-01-25T12:53:13;8.85;;;3.70;;
85506;SDS011;75915;41.988;21.460;2024-01-25T12:55:40;10.00;;;4.18;;
85506;SDS011;75915;41.988;21.460;2024-01-25T12:58:05;7.68;;;3.55;;
85506;SDS011;75915;41.988;21.460;2024-01-25T13:00:31;12.02;;;4.20;;
85506;SDS011;75915;41.988;21.460;2024-01-25T13:02:59;11.65;;;4.18;;
85506;SDS011;75915;41.988;21.460;2024-01-25T13:05:28;12.95;;;3.88;;
85506;SDS011;75915;41.988;21.460;2024-01-25T13:07:55;10.43;;;4.25;;
85506;SDS011;75915;41.988;21.460;2024-01-25T13:10:20;14.25;;;4.47;;
85506;SDS011;75915;41.988;21.460;2024-01-25T13:12:46;8.73;;;4.13;;
85506;SDS011;75915;41.988;21.460;2024-01-25T13:15:13;15.15;;;3.95;;
85506;SDS011;75915;41.988;21.460;2024-01-25T13:17:40;10.40;;;4.82;;
85506;SDS011;75915;41.988;21.460;2024-01-25T13:20:05;11.75;;;4.00;;
85506;SDS011;75915;41.988;21.460;2024-01-25T13:22:38;8.45;;;3.70;;
85506;SDS011;75915;41.988;21.460;2024-01-25T13:25:05;9.52;;;3.90;;
85506;SDS011;75915;41.988;21.460;2024-01-25T13:27:31;10.88;;;4.00;;
85506;SDS011;75915;41.988;21.460;2024-01-25T13:29:56;10.23;;;3.70;;
85506;SDS011;75915;41.988;21.460;2024-01-25T13:32:22;11.52;;;3.80;;
85506;SDS011;75915;41.988;21.460;2024-01-25T13:34:49;13.38;;;3.72;;
85506;SDS011;75915;41.988;21.460;2024-01-25T13:37:14;6.70;;;3.50;;
85506;SDS011;75915;41.988;21.460;2024-01-25T13:39:48;13.25;;;4.07;;
85506;SDS011;75915;41.988;21.460;2024-01-25T13:42:14;16.98;;;4.43;;
85506;SDS011;75915;41.988;21.460;2024-01-25T13:44:40;7.75;;;3.42;;
85506;SDS011;75915;41.988;21.460;2024-01-25T13:47:05;9.38;;;3.33;;
85506;SDS011;75915;41.988;21.460;2024-01-25T13:49:31;11.68;;;3.80;;
85506;SDS011;75915;41.988;21.460;2024-01-25T13:51:59;12.15;;;3.15;;
85506;SDS011;75915;41.988;21.460;2024-01-25T13:54:28;10.38;;;3.22;;
85506;SDS011;75915;41.988;21.460;2024-01-25T13:56:55;22.58;;;4.38;;
85506;SDS011;75915;41.988;21.460;2024-01-25T13:59:20;6.75;;;2.80;;
85506;SDS011;75915;41.988;21.460;2024-01-25T14:01:46;5.15;;;2.50;;
85506;SDS011;75915;41.988;21.460;2024-01-25T14:04:12;12.85;;;2.80;;
85506;SDS011;75915;41.988;21.460;2024-01-25T14:06:38;5.15;;;2.65;;
85506;SDS011;75915;41.988;21.460;2024-01-25T14:09:07;6.55;;;2.85;;
85506;SDS011;75915;41.988;21.460;2024-01-25T14:11:33;6.32;;;2.95;;
85506;SDS011;75915;41.988;21.460;2024-01-25T14:13:58;14.15;;;3.80;;
85506;SDS011;75915;41.988;21.460;2024-01-25T14:16:25;18.75;;;4.53;;
85506;SDS011;75915;41.988;21.460;2024-01-25T14:18:50;13.98;;;5.05;;